Terminal Aerodrome Forecast
Issued by NWS

Home | Current Version | Previous Version | Text Only | Print | Product List | Glossary On
Versions: 1 2 3 4 5 6 7 8 9 10 11 12 13 14 15 16 17 18 19 20 21 22 23 24 25 26 27 28
822
FTUS41 KBUF 270533
TAFJHW
TAF
KJHW 270533Z 2706/2806 18005KT P6SM BKN100
     FM271300 23004KT P6SM BKN110
     FM271500 29004KT P6SM BKN130
     FM272100 31007KT P6SM BKN110
     FM280000 VRB03KT P6SM BKN080
     FM280400 00000KT 5SM BR BKN250
      AMD LTD TO CLD VIS AND WIND=

USA.gov is the U.S. government's official web portal to all federal, state and local government web resources and services.